KBGR/BGR METAR and TAF weather

Enter ICAO airport designator
Station Type Date Time Source
KBGR METAR 2018/12/13 14:53 UTC NOAA

KBGR 131453Z 00000KT 10SM FEW200 M11/M16 A3055 RMK AO2 SLP351 T11061156 53022


Station Type Date Time Source
KBGR Decoded METAR 2018/12/13 14:53 UTC NOAA

BANGOR INT'L AIRPORT, ME, United States (KBGR) 44-48N 068-49W 57M
Dec 13, 2018 - 09:53 AM EST / 2018.12.13 1453 UTC
Wind: Calm:0
Visibility: 10 mile(s):0
Sky conditions: mostly clear
Temperature: 12.9 F (-10.6 C)
Dew Point: 3.9 F (-15.6 C)
Relative Humidity: 66%
Pressure (altimeter): 30.55 in. Hg (1034 hPa)
Pressure tendency: 0.06 inches (2.2 hPa) higher than three hours ago
ob: KBGR 131453Z 00000KT 10SM FEW200 M11/M16 A3055 RMK AO2 SLP351 T11061156 53022
cycle: 15

Station Type Date Time Source
KBGR TAF 2018/12/13 12:28 UTC NOAA

TAF KBGR 131125Z 1312/1412 32004KT P6SM SKC
FM132000 22006KT P6SM SCT200


Example: see airport list